Terminal Aerodrome Forecast
Issued by NWS Louisville, KY

Home | Current Version | Previous Version | Text Only | Print | Product List | Glossary On
Versions: 1 2 3 4 5 6 7 8 9 10 11 12 13 14 15 16 17 18
761
FTUS43 KLMK 241126
TAFSDF
TAF
KSDF 241126Z 2412/2518 19010KT P6SM FEW150
     FM241600 20015G28KT P6SM SCT040 SCT150
     FM250000 25010G25KT 5SM -SHRA VCTS OVC035CB
     FM250400 27010G20KT P6SM OVC040=

USA.gov is the U.S. government's official web portal to all federal, state and local government web resources and services.